sensor_id;sensor_type;location;lat;lon;timestamp;temperature;humidity
53268;DHT22;39156;51.176;6.738;2022-12-18T00:01:32;-3.60;68.60
53268;DHT22;39156;51.176;6.738;2022-12-18T00:04:01;-3.60;68.60
53268;DHT22;39156;51.176;6.738;2022-12-18T00:06:31;-3.60;68.60
53268;DHT22;39156;51.176;6.738;2022-12-18T00:08:59;-3.60;69.30
53268;DHT22;39156;51.176;6.738;2022-12-18T00:11:28;-3.80;68.60
53268;DHT22;39156;51.176;6.738;2022-12-18T00:13:55;-3.60;68.80
53268;DHT22;39156;51.176;6.738;2022-12-18T00:16:24;-3.70;68.80
53268;DHT22;39156;51.176;6.738;2022-12-18T00:18:53;-3.60;68.90
53268;DHT22;39156;51.176;6.738;2022-12-18T00:21:20;-3.80;68.80
53268;DHT22;39156;51.176;6.738;2022-12-18T00:23:46;-3.70;68.90
53268;DHT22;39156;51.176;6.738;2022-12-18T00:26:18;-3.90;68.90
53268;DHT22;39156;51.176;6.738;2022-12-18T00:28:46;-3.70;69.00
53268;DHT22;39156;51.176;6.738;2022-12-18T00:31:20;-3.80;69.00
53268;DHT22;39156;51.176;6.738;2022-12-18T00:33:47;-3.80;69.10
53268;DHT22;39156;51.176;6.738;2022-12-18T00:36:15;-3.90;69.00
53268;DHT22;39156;51.176;6.738;2022-12-18T00:38:43;-3.70;69.20
53268;DHT22;39156;51.176;6.738;2022-12-18T00:41:10;-3.80;69.00
53268;DHT22;39156;51.176;6.738;2022-12-18T00:43:38;-6.80;67.30
53268;DHT22;39156;51.176;6.738;2022-12-18T00:46:05;-3.80;69.10
53268;DHT22;39156;51.176;6.738;2022-12-18T00:48:31;-3.90;69.00
53268;DHT22;39156;51.176;6.738;2022-12-18T00:50:57;-3.90;69.00
53268;DHT22;39156;51.176;6.738;2022-12-18T00:53:23;-3.90;68.90
53268;DHT22;39156;51.176;6.738;2022-12-18T00:55:49;-3.90;69.00
53268;DHT22;39156;51.176;6.738;2022-12-18T00:58:15;-4.00;68.80
53268;DHT22;39156;51.176;6.738;2022-12-18T01:00:42;-3.90;68.60
53268;DHT22;39156;51.176;6.738;2022-12-18T01:03:09;-4.00;68.90
53268;DHT22;39156;51.176;6.738;2022-12-18T01:05:42;-3.90;68.60
53268;DHT22;39156;51.176;6.738;2022-12-18T01:08:08;-4.00;69.00
53268;DHT22;39156;51.176;6.738;2022-12-18T01:10:33;-4.00;69.00
53268;DHT22;39156;51.176;6.738;2022-12-18T01:12:59;-4.00;69.00
53268;DHT22;39156;51.176;6.738;2022-12-18T01:15:25;-4.00;69.00
53268;DHT22;39156;51.176;6.738;2022-12-18T01:17:52;-3.90;69.20
53268;DHT22;39156;51.176;6.738;2022-12-18T01:20:18;-4.00;69.00
53268;DHT22;39156;51.176;6.738;2022-12-18T01:22:44;-4.00;69.10
53268;DHT22;39156;51.176;6.738;2022-12-18T01:25:10;-4.00;69.00
53268;DHT22;39156;51.176;6.738;2022-12-18T01:27:35;-4.00;69.00
53268;DHT22;39156;51.176;6.738;2022-12-18T01:30:01;-4.00;68.90
53268;DHT22;39156;51.176;6.738;2022-12-18T01:32:30;-3.90;69.10
53268;DHT22;39156;51.176;6.738;2022-12-18T01:34:56;-4.00;68.90
53268;DHT22;39156;51.176;6.738;2022-12-18T01:37:21;-4.00;69.00
53268;DHT22;39156;51.176;6.738;2022-12-18T01:39:47;-2.50;69.80
53268;DHT22;39156;51.176;6.738;2022-12-18T01:42:15;-4.10;68.80
53268;DHT22;39156;51.176;6.738;2022-12-18T01:45:08;-4.10;68.70
53268;DHT22;39156;51.176;6.738;2022-12-18T01:47:54;-3.90;68.80
53268;DHT22;39156;51.176;6.738;2022-12-18T01:53:15;-4.00;68.50
53268;DHT22;39156;51.176;6.738;2022-12-18T01:55:47;-4.10;68.80
53268;DHT22;39156;51.176;6.738;2022-12-18T01:58:15;-4.00;68.60
53268;DHT22;39156;51.176;6.738;2022-12-18T02:00:41;-4.10;68.20
53268;DHT22;39156;51.176;6.738;2022-12-18T02:03:07;-4.00;68.70
53268;DHT22;39156;51.176;6.738;2022-12-18T02:08:33;-3.60;68.90
53268;DHT22;39156;51.176;6.738;2022-12-18T02:11:07;-4.10;68.60
53268;DHT22;39156;51.176;6.738;2022-12-18T02:14:00;-4.00;68.80
53268;DHT22;39156;51.176;6.738;2022-12-18T02:20:27;-4.10;68.80
53268;DHT22;39156;51.176;6.738;2022-12-18T02:23:14;-4.00;68.80
53268;DHT22;39156;51.176;6.738;2022-12-18T02:26:13;-4.10;68.80
53268;DHT22;39156;51.176;6.738;2022-12-18T02:28:49;-4.00;69.00
53268;DHT22;39156;51.176;6.738;2022-12-18T02:31:24;-4.10;68.90
53268;DHT22;39156;51.176;6.738;2022-12-18T02:33:53;-4.10;68.90
53268;DHT22;39156;51.176;6.738;2022-12-18T02:36:21;-4.00;69.00
53268;DHT22;39156;51.176;6.738;2022-12-18T02:38:47;-4.10;69.00
53268;DHT22;39156;51.176;6.738;2022-12-18T02:41:14;-4.10;69.10
53268;DHT22;39156;51.176;6.738;2022-12-18T02:43:48;-4.10;69.10
53268;DHT22;39156;51.176;6.738;2022-12-18T02:46:32;-4.10;69.10
53268;DHT22;39156;51.176;6.738;2022-12-18T02:49:21;-3.90;69.40
53268;DHT22;39156;51.176;6.738;2022-12-18T02:52:07;-4.10;69.30
53268;DHT22;39156;51.176;6.738;2022-12-18T02:58:16;-4.00;69.30
53268;DHT22;39156;51.176;6.738;2022-12-18T03:03:36;-4.00;69.40
53268;DHT22;39156;51.176;6.738;2022-12-18T03:06:12;-4.10;69.30
53268;DHT22;39156;51.176;6.738;2022-12-18T03:08:45;-4.10;69.20
53268;DHT22;39156;51.176;6.738;2022-12-18T03:11:13;-4.00;69.20
53268;DHT22;39156;51.176;6.738;2022-12-18T03:13:46;-4.00;69.00
53268;DHT22;39156;51.176;6.738;2022-12-18T03:16:24;-4.10;69.30
53268;DHT22;39156;51.176;6.738;2022-12-18T03:18:57;-4.10;69.20
53268;DHT22;39156;51.176;6.738;2022-12-18T03:21:29;-4.10;69.20
53268;DHT22;39156;51.176;6.738;2022-12-18T03:24:00;-4.10;69.30
53268;DHT22;39156;51.176;6.738;2022-12-18T03:26:27;-4.00;69.20
53268;DHT22;39156;51.176;6.738;2022-12-18T03:28:57;-4.10;69.30
53268;DHT22;39156;51.176;6.738;2022-12-18T03:31:27;-4.00;69.10
53268;DHT22;39156;51.176;6.738;2022-12-18T03:33:57;-4.00;69.20
53268;DHT22;39156;51.176;6.738;2022-12-18T03:36:24;-4.00;69.20
53268;DHT22;39156;51.176;6.738;2022-12-18T03:38:51;-4.00;69.20
53268;DHT22;39156;51.176;6.738;2022-12-18T03:41:30;-3.90;69.30
53268;DHT22;39156;51.176;6.738;2022-12-18T03:44:12;-3.90;69.20
53268;DHT22;39156;51.176;6.738;2022-12-18T03:47:23;-3.90;68.90
53268;DHT22;39156;51.176;6.738;2022-12-18T03:53:32;-3.90;69.20
53268;DHT22;39156;51.176;6.738;2022-12-18T03:55:41;-4.00;69.00
53268;DHT22;39156;51.176;6.738;2022-12-18T03:58:08;-3.80;68.70
53268;DHT22;39156;51.176;6.738;2022-12-18T04:00:35;-3.90;68.90
53268;DHT22;39156;51.176;6.738;2022-12-18T04:03:02;-3.80;68.90
53268;DHT22;39156;51.176;6.738;2022-12-18T04:05:30;-3.70;69.00
53268;DHT22;39156;51.176;6.738;2022-12-18T04:07:57;-3.80;68.80
53268;DHT22;39156;51.176;6.738;2022-12-18T04:10:23;-3.90;68.90
53268;DHT22;39156;51.176;6.738;2022-12-18T04:12:49;-3.80;68.90
53268;DHT22;39156;51.176;6.738;2022-12-18T04:15:15;-3.80;69.00
53268;DHT22;39156;51.176;6.738;2022-12-18T04:17:48;-3.90;68.80
53268;DHT22;39156;51.176;6.738;2022-12-18T04:20:15;-3.90;68.90
53268;DHT22;39156;51.176;6.738;2022-12-18T04:22:41;-3.80;68.90
53268;DHT22;39156;51.176;6.738;2022-12-18T04:25:08;-4.50;68.40
53268;DHT22;39156;51.176;6.738;2022-12-18T04:27:34;-3.90;68.70
53268;DHT22;39156;51.176;6.738;2022-12-18T04:29:59;-3.60;68.90
53268;DHT22;39156;51.176;6.738;2022-12-18T04:32:25;-3.90;68.50
53268;DHT22;39156;51.176;6.738;2022-12-18T04:34:51;-3.90;68.70
53268;DHT22;39156;51.176;6.738;2022-12-18T04:37:17;-3.90;68.80
53268;DHT22;39156;51.176;6.738;2022-12-18T04:39:42;-3.80;68.70
53268;DHT22;39156;51.176;6.738;2022-12-18T04:42:08;-3.80;68.70
53268;DHT22;39156;51.176;6.738;2022-12-18T04:44:34;-3.80;68.80
53268;DHT22;39156;51.176;6.738;2022-12-18T04:46:59;-3.90;68.80
53268;DHT22;39156;51.176;6.738;2022-12-18T04:49:25;-3.90;68.70
53268;DHT22;39156;51.176;6.738;2022-12-18T04:51:51;-3.80;68.60
53268;DHT22;39156;51.176;6.738;2022-12-18T04:54:20;-3.80;68.80
53268;DHT22;39156;51.176;6.738;2022-12-18T04:56:45;-3.90;68.80
53268;DHT22;39156;51.176;6.738;2022-12-18T04:59:11;-3.80;68.70
53268;DHT22;39156;51.176;6.738;2022-12-18T05:01:36;-4.00;68.80
53268;DHT22;39156;51.176;6.738;2022-12-18T05:04:02;-3.90;68.90
53268;DHT22;39156;51.176;6.738;2022-12-18T05:06:28;-3.90;68.90
53268;DHT22;39156;51.176;6.738;2022-12-18T05:08:54;-3.90;68.90
53268;DHT22;39156;51.176;6.738;2022-12-18T05:11:20;-3.90;68.70
53268;DHT22;39156;51.176;6.738;2022-12-18T05:13:46;-3.90;68.90
53268;DHT22;39156;51.176;6.738;2022-12-18T05:16:13;-4.10;68.70
53268;DHT22;39156;51.176;6.738;2022-12-18T05:18:40;-3.90;68.80
53268;DHT22;39156;51.176;6.738;2022-12-18T05:21:05;-3.90;68.90
53268;DHT22;39156;51.176;6.738;2022-12-18T05:23:31;-3.90;68.80
53268;DHT22;39156;51.176;6.738;2022-12-18T05:25:59;-4.00;69.00
53268;DHT22;39156;51.176;6.738;2022-12-18T05:28:28;-3.90;69.00
53268;DHT22;39156;51.176;6.738;2022-12-18T05:30:57;-4.00;69.00
53268;DHT22;39156;51.176;6.738;2022-12-18T05:33:25;-4.00;69.00
53268;DHT22;39156;51.176;6.738;2022-12-18T05:35:59;-4.00;69.00
53268;DHT22;39156;51.176;6.738;2022-12-18T05:38:27;-4.00;69.20
53268;DHT22;39156;51.176;6.738;2022-12-18T05:40:53;-4.00;69.20
53268;DHT22;39156;51.176;6.738;2022-12-18T05:43:20;-4.00;69.00
53268;DHT22;39156;51.176;6.738;2022-12-18T05:45:47;-4.00;69.20
53268;DHT22;39156;51.176;6.738;2022-12-18T05:48:13;-3.90;69.20
53268;DHT22;39156;51.176;6.738;2022-12-18T05:50:41;-4.00;69.00
53268;DHT22;39156;51.176;6.738;2022-12-18T05:53:08;-4.10;69.10
53268;DHT22;39156;51.176;6.738;2022-12-18T05:55:35;-4.10;69.20
53268;DHT22;39156;51.176;6.738;2022-12-18T05:58:02;-4.10;69.20
53268;DHT22;39156;51.176;6.738;2022-12-18T06:00:29;-4.00;69.30
53268;DHT22;39156;51.176;6.738;2022-12-18T06:02:55;-4.10;68.90
53268;DHT22;39156;51.176;6.738;2022-12-18T06:05:21;-4.00;69.30
53268;DHT22;39156;51.176;6.738;2022-12-18T06:07:47;-4.00;69.40
53268;DHT22;39156;51.176;6.738;2022-12-18T06:10:12;-4.10;69.30
53268;DHT22;39156;51.176;6.738;2022-12-18T06:12:38;-4.10;69.30
53268;DHT22;39156;51.176;6.738;2022-12-18T06:15:04;-4.10;69.20
53268;DHT22;39156;51.176;6.738;2022-12-18T06:17:31;-4.20;69.20
53268;DHT22;39156;51.176;6.738;2022-12-18T06:19:58;-4.00;69.10
53268;DHT22;39156;51.176;6.738;2022-12-18T06:22:23;-4.10;69.30
53268;DHT22;39156;51.176;6.738;2022-12-18T06:24:49;-4.10;69.30
53268;DHT22;39156;51.176;6.738;2022-12-18T06:27:15;-4.10;69.10
53268;DHT22;39156;51.176;6.738;2022-12-18T06:29:41;-4.00;69.30
53268;DHT22;39156;51.176;6.738;2022-12-18T06:34:33;-4.00;69.00
53268;DHT22;39156;51.176;6.738;2022-12-18T06:36:59;-4.10;69.40
53268;DHT22;39156;51.176;6.738;2022-12-18T06:39:27;-4.00;69.50
53268;DHT22;39156;51.176;6.738;2022-12-18T06:41:53;-4.10;69.40
53268;DHT22;39156;51.176;6.738;2022-12-18T06:44:18;-4.10;69.30
53268;DHT22;39156;51.176;6.738;2022-12-18T06:46:44;-4.00;69.30
53268;DHT22;39156;51.176;6.738;2022-12-18T06:49:10;-4.10;69.10
53268;DHT22;39156;51.176;6.738;2022-12-18T06:51:36;-4.00;69.20
53268;DHT22;39156;51.176;6.738;2022-12-18T06:54:02;-4.10;69.10
53268;DHT22;39156;51.176;6.738;2022-12-18T06:56:28;-4.00;69.10
53268;DHT22;39156;51.176;6.738;2022-12-18T06:58:54;-3.90;69.10
53268;DHT22;39156;51.176;6.738;2022-12-18T07:01:21;-3.90;69.00
53268;DHT22;39156;51.176;6.738;2022-12-18T07:03:47;-4.00;68.70
53268;DHT22;39156;51.176;6.738;2022-12-18T07:06:19;-4.00;68.60
53268;DHT22;39156;51.176;6.738;2022-12-18T07:08:46;-3.90;68.80
53268;DHT22;39156;51.176;6.738;2022-12-18T07:11:12;-4.00;68.20
53268;DHT22;39156;51.176;6.738;2022-12-18T07:13:38;-4.10;68.70
53268;DHT22;39156;51.176;6.738;2022-12-18T07:16:07;-4.00;68.70
53268;DHT22;39156;51.176;6.738;2022-12-18T07:18:34;-1.40;70.00
53268;DHT22;39156;51.176;6.738;2022-12-18T07:21:10;-4.00;68.80
53268;DHT22;39156;51.176;6.738;2022-12-18T07:23:38;-4.00;68.50
53268;DHT22;39156;51.176;6.738;2022-12-18T07:26:09;-4.10;68.60
53268;DHT22;39156;51.176;6.738;2022-12-18T07:28:36;-3.90;68.80
53268;DHT22;39156;51.176;6.738;2022-12-18T07:31:11;-3.90;68.80
53268;DHT22;39156;51.176;6.738;2022-12-18T07:33:39;-3.90;68.70
53268;DHT22;39156;51.176;6.738;2022-12-18T07:36:07;-4.00;68.40
53268;DHT22;39156;51.176;6.738;2022-12-18T07:38:34;-3.90;68.40
53268;DHT22;39156;51.176;6.738;2022-12-18T07:41:05;-3.90;68.30
53268;DHT22;39156;51.176;6.738;2022-12-18T07:43:33;-4.00;68.00
53268;DHT22;39156;51.176;6.738;2022-12-18T07:45:59;-4.00;68.40
53268;DHT22;39156;51.176;6.738;2022-12-18T07:48:25;-3.90;68.40
53268;DHT22;39156;51.176;6.738;2022-12-18T07:50:52;-3.80;68.60
53268;DHT22;39156;51.176;6.738;2022-12-18T07:53:18;-3.90;68.60
53268;DHT22;39156;51.176;6.738;2022-12-18T07:55:43;-3.90;68.50
53268;DHT22;39156;51.176;6.738;2022-12-18T07:58:09;-3.80;68.60
53268;DHT22;39156;51.176;6.738;2022-12-18T08:00:35;-3.80;68.50
53268;DHT22;39156;51.176;6.738;2022-12-18T08:03:01;-3.80;68.40
53268;DHT22;39156;51.176;6.738;2022-12-18T08:05:27;-3.80;68.60
53268;DHT22;39156;51.176;6.738;2022-12-18T08:07:53;-3.80;68.40
53268;DHT22;39156;51.176;6.738;2022-12-18T08:10:20;-3.60;68.10
53268;DHT22;39156;51.176;6.738;2022-12-18T08:12:48;-3.70;68.40
53268;DHT22;39156;51.176;6.738;2022-12-18T08:15:14;-3.60;67.90
53268;DHT22;39156;51.176;6.738;2022-12-18T08:17:40;-3.60;68.30
53268;DHT22;39156;51.176;6.738;2022-12-18T08:20:06;-3.60;67.60
53268;DHT22;39156;51.176;6.738;2022-12-18T08:22:34;-3.50;67.70
53268;DHT22;39156;51.176;6.738;2022-12-18T08:25:01;-2.60;68.50
53268;DHT22;39156;51.176;6.738;2022-12-18T08:27:27;-3.50;67.80
53268;DHT22;39156;51.176;6.738;2022-12-18T08:29:53;-3.50;67.90
53268;DHT22;39156;51.176;6.738;2022-12-18T08:32:18;-3.40;67.90
53268;DHT22;39156;51.176;6.738;2022-12-18T08:34:44;-3.50;67.90
53268;DHT22;39156;51.176;6.738;2022-12-18T08:37:10;-3.20;67.10
53268;DHT22;39156;51.176;6.738;2022-12-18T08:39:35;-3.20;67.10
53268;DHT22;39156;51.176;6.738;2022-12-18T08:42:01;-3.10;67.90
53268;DHT22;39156;51.176;6.738;2022-12-18T08:44:45;-3.00;68.10
53268;DHT22;39156;51.176;6.738;2022-12-18T08:47:11;-2.80;67.60
53268;DHT22;39156;51.176;6.738;2022-12-18T08:49:37;-2.60;67.50
53268;DHT22;39156;51.176;6.738;2022-12-18T08:52:02;-2.40;67.20
53268;DHT22;39156;51.176;6.738;2022-12-18T08:54:29;-2.20;67.20
53268;DHT22;39156;51.176;6.738;2022-12-18T08:56:54;-2.00;66.50
53268;DHT22;39156;51.176;6.738;2022-12-18T08:59:20;-1.80;65.30
53268;DHT22;39156;51.176;6.738;2022-12-18T09:01:46;-1.60;65.40
53268;DHT22;39156;51.176;6.738;2022-12-18T09:04:12;-1.40;65.00
53268;DHT22;39156;51.176;6.738;2022-12-18T09:06:39;-1.30;64.80
53268;DHT22;39156;51.176;6.738;2022-12-18T09:09:05;-1.10;64.30
53268;DHT22;39156;51.176;6.738;2022-12-18T09:11:32;-1.10;63.90
53268;DHT22;39156;51.176;6.738;2022-12-18T09:13:59;-1.10;63.10
53268;DHT22;39156;51.176;6.738;2022-12-18T09:16:27;-0.90;62.90
53268;DHT22;39156;51.176;6.738;2022-12-18T09:18:55;-0.90;62.50
53268;DHT22;39156;51.176;6.738;2022-12-18T09:21:25;-0.80;62.50
53268;DHT22;39156;51.176;6.738;2022-12-18T09:23:54;-0.80;62.20
53268;DHT22;39156;51.176;6.738;2022-12-18T09:26:25;-0.70;62.00
53268;DHT22;39156;51.176;6.738;2022-12-18T09:28:52;-0.70;62.00
53268;DHT22;39156;51.176;6.738;2022-12-18T09:31:20;-0.70;61.70
53268;DHT22;39156;51.176;6.738;2022-12-18T09:33:47;-0.60;61.60
53268;DHT22;39156;51.176;6.738;2022-12-18T09:36:15;-0.50;61.70
53268;DHT22;39156;51.176;6.738;2022-12-18T09:38:41;-0.40;61.90
53268;DHT22;39156;51.176;6.738;2022-12-18T09:46:52;-0.20;60.30
53268;DHT22;39156;51.176;6.738;2022-12-18T09:49:23;-0.30;59.90
53268;DHT22;39156;51.176;6.738;2022-12-18T09:52:08;-0.30;59.60
53268;DHT22;39156;51.176;6.738;2022-12-18T09:54:41;-0.20;59.80
53268;DHT22;39156;51.176;6.738;2022-12-18T09:57:14;-0.20;59.90
53268;DHT22;39156;51.176;6.738;2022-12-18T09:59:45;-0.30;59.60
53268;DHT22;39156;51.176;6.738;2022-12-18T10:02:19;-0.30;59.50
53268;DHT22;39156;51.176;6.738;2022-12-18T10:05:03;-0.40;59.20
53268;DHT22;39156;51.176;6.738;2022-12-18T10:07:55;-0.40;59.30
53268;DHT22;39156;51.176;6.738;2022-12-18T10:10:51;-0.50;59.30
53268;DHT22;39156;51.176;6.738;2022-12-18T10:16:17;-0.40;59.80
53268;DHT22;39156;51.176;6.738;2022-12-18T10:18:57;-0.50;59.60
53268;DHT22;39156;51.176;6.738;2022-12-18T10:24:39;-0.60;59.40
53268;DHT22;39156;51.176;6.738;2022-12-18T10:27:15;-0.50;59.90
53268;DHT22;39156;51.176;6.738;2022-12-18T10:29:44;-0.50;59.40
53268;DHT22;39156;51.176;6.738;2022-12-18T10:32:19;-0.50;59.50
53268;DHT22;39156;51.176;6.738;2022-12-18T10:34:52;-0.50;59.70
53268;DHT22;39156;51.176;6.738;2022-12-18T10:37:22;-0.40;59.60
53268;DHT22;39156;51.176;6.738;2022-12-18T10:40:25;-0.40;60.00
53268;DHT22;39156;51.176;6.738;2022-12-18T10:45:31;-0.30;59.30
53268;DHT22;39156;51.176;6.738;2022-12-18T10:47:57;-0.20;59.30
53268;DHT22;39156;51.176;6.738;2022-12-18T10:50:29;-0.30;59.30
53268;DHT22;39156;51.176;6.738;2022-12-18T10:52:58;-0.30;59.20
53268;DHT22;39156;51.176;6.738;2022-12-18T10:55:34;-0.20;59.30
53268;DHT22;39156;51.176;6.738;2022-12-18T10:58:30;-0.30;59.20
53268;DHT22;39156;51.176;6.738;2022-12-18T11:01:24;-0.30;59.30
53268;DHT22;39156;51.176;6.738;2022-12-18T11:06:17;-0.20;59.10
53268;DHT22;39156;51.176;6.738;2022-12-18T11:11:28;-0.20;58.80
53268;DHT22;39156;51.176;6.738;2022-12-18T11:16:29;-0.40;59.00
53268;DHT22;39156;51.176;6.738;2022-12-18T11:19:34;-0.20;59.20
53268;DHT22;39156;51.176;6.738;2022-12-18T11:22:03;-0.20;58.60
53268;DHT22;39156;51.176;6.738;2022-12-18T11:24:43;-0.20;58.80
53268;DHT22;39156;51.176;6.738;2022-12-18T11:27:17;-0.30;59.10
53268;DHT22;39156;51.176;6.738;2022-12-18T11:29:43;-0.20;59.20
53268;DHT22;39156;51.176;6.738;2022-12-18T11:32:27;-0.10;59.60
53268;DHT22;39156;51.176;6.738;2022-12-18T11:35:08;-0.20;59.50
53268;DHT22;39156;51.176;6.738;2022-12-18T11:37:41;0.00;59.10
53268;DHT22;39156;51.176;6.738;2022-12-18T11:40:16;-0.10;59.40
53268;DHT22;39156;51.176;6.738;2022-12-18T11:42:55;-0.10;59.40
53268;DHT22;39156;51.176;6.738;2022-12-18T11:45:28;-0.10;59.20
53268;DHT22;39156;51.176;6.738;2022-12-18T11:48:22;0.00;59.10
53268;DHT22;39156;51.176;6.738;2022-12-18T11:50:55;0.00;58.30
53268;DHT22;39156;51.176;6.738;2022-12-18T11:53:25;0.00;58.90
53268;DHT22;39156;51.176;6.738;2022-12-18T11:56:05;0.00;59.10
53268;DHT22;39156;51.176;6.738;2022-12-18T11:59:02;-0.10;58.50
53268;DHT22;39156;51.176;6.738;2022-12-18T12:01:50;-0.10;58.40
53268;DHT22;39156;51.176;6.738;2022-12-18T12:04:38;-0.10;58.50
53268;DHT22;39156;51.176;6.738;2022-12-18T12:10:36;-0.20;59.00
53268;DHT22;39156;51.176;6.738;2022-12-18T12:13:16;-0.20;58.90
53268;DHT22;39156;51.176;6.738;2022-12-18T12:25:16;-0.30;58.70
53268;DHT22;39156;51.176;6.738;2022-12-18T12:30:49;-0.30;59.10
53268;DHT22;39156;51.176;6.738;2022-12-18T12:33:38;-0.20;59.20
53268;DHT22;39156;51.176;6.738;2022-12-18T12:36:33;-0.20;58.90
53268;DHT22;39156;51.176;6.738;2022-12-18T12:39:38;-0.20;59.30
53268;DHT22;39156;51.176;6.738;2022-12-18T12:42:28;-0.30;59.00
53268;DHT22;39156;51.176;6.738;2022-12-18T12:45:23;-0.30;59.10
53268;DHT22;39156;51.176;6.738;2022-12-18T12:47:53;-0.30;59.00
53268;DHT22;39156;51.176;6.738;2022-12-18T12:50:20;-0.30;59.30
53268;DHT22;39156;51.176;6.738;2022-12-18T12:52:48;-0.30;59.20
53268;DHT22;39156;51.176;6.738;2022-12-18T12:55:22;-0.30;58.90
53268;DHT22;39156;51.176;6.738;2022-12-18T13:00:41;-0.40;59.10
53268;DHT22;39156;51.176;6.738;2022-12-18T13:03:31;-0.50;59.10
53268;DHT22;39156;51.176;6.738;2022-12-18T13:06:04;-0.40;59.40
53268;DHT22;39156;51.176;6.738;2022-12-18T13:09:01;-0.50;59.50
53268;DHT22;39156;51.176;6.738;2022-12-18T13:14:26;-0.50;59.60
53268;DHT22;39156;51.176;6.738;2022-12-18T13:16:52;-0.40;59.30
53268;DHT22;39156;51.176;6.738;2022-12-18T13:19:41;-0.30;59.60
53268;DHT22;39156;51.176;6.738;2022-12-18T13:22:23;-0.50;59.40
53268;DHT22;39156;51.176;6.738;2022-12-18T13:24:54;-0.40;59.40
53268;DHT22;39156;51.176;6.738;2022-12-18T13:38:33;-0.60;59.70
53268;DHT22;39156;51.176;6.738;2022-12-18T13:43:55;-0.50;60.30
53268;DHT22;39156;51.176;6.738;2022-12-18T13:46:43;-0.40;60.40
53268;DHT22;39156;51.176;6.738;2022-12-18T13:51:41;-0.60;60.20
53268;DHT22;39156;51.176;6.738;2022-12-18T13:54:37;-0.60;60.20
53268;DHT22;39156;51.176;6.738;2022-12-18T13:57:23;-0.60;60.50
53268;DHT22;39156;51.176;6.738;2022-12-18T14:02:51;-0.70;60.20
53268;DHT22;39156;51.176;6.738;2022-12-18T14:05:22;-0.70;60.40
53268;DHT22;39156;51.176;6.738;2022-12-18T14:08:08;-0.60;60.20
53268;DHT22;39156;51.176;6.738;2022-12-18T14:10:40;-0.70;60.20
53268;DHT22;39156;51.176;6.738;2022-12-18T14:13:09;-0.70;60.10
53268;DHT22;39156;51.176;6.738;2022-12-18T14:15:40;-0.70;60.20
53268;DHT22;39156;51.176;6.738;2022-12-18T14:18:26;-0.80;60.50
53268;DHT22;39156;51.176;6.738;2022-12-18T14:21:28;-0.80;60.40
53268;DHT22;39156;51.176;6.738;2022-12-18T14:24:18;-0.70;60.30
53268;DHT22;39156;51.176;6.738;2022-12-18T14:26:46;-0.80;60.30
53268;DHT22;39156;51.176;6.738;2022-12-18T14:29:26;-0.90;60.50
53268;DHT22;39156;51.176;6.738;2022-12-18T14:32:19;-0.90;60.50
53268;DHT22;39156;51.176;6.738;2022-12-18T14:34:47;-0.90;60.50
53268;DHT22;39156;51.176;6.738;2022-12-18T14:37:17;-0.90;60.80
53268;DHT22;39156;51.176;6.738;2022-12-18T14:39:58;-0.90;60.80
53268;DHT22;39156;51.176;6.738;2022-12-18T14:42:27;-1.00;60.70
53268;DHT22;39156;51.176;6.738;2022-12-18T14:48:17;-1.00;61.00
53268;DHT22;39156;51.176;6.738;2022-12-18T14:51:26;-1.10;61.20
53268;DHT22;39156;51.176;6.738;2022-12-18T14:54:02;-1.10;61.10
53268;DHT22;39156;51.176;6.738;2022-12-18T14:56:32;-1.10;60.80
53268;DHT22;39156;51.176;6.738;2022-12-18T14:59:22;-1.10;61.10
53268;DHT22;39156;51.176;6.738;2022-12-18T15:04:36;-1.20;61.10
53268;DHT22;39156;51.176;6.738;2022-12-18T15:10:03;-1.10;61.00
53268;DHT22;39156;51.176;6.738;2022-12-18T15:12:35;-1.10;61.10
53268;DHT22;39156;51.176;6.738;2022-12-18T15:15:03;-1.10;61.00
53268;DHT22;39156;51.176;6.738;2022-12-18T15:17:30;-1.10;61.40
53268;DHT22;39156;51.176;6.738;2022-12-18T15:20:02;-1.10;61.40
53268;DHT22;39156;51.176;6.738;2022-12-18T15:22:35;-1.10;60.60
53268;DHT22;39156;51.176;6.738;2022-12-18T15:25:03;-1.10;61.20
53268;DHT22;39156;51.176;6.738;2022-12-18T15:27:50;-1.10;61.30
53268;DHT22;39156;51.176;6.738;2022-12-18T15:30:19;-1.20;61.10
53268;DHT22;39156;51.176;6.738;2022-12-18T15:32:47;-1.10;60.90
53268;DHT22;39156;51.176;6.738;2022-12-18T15:35:17;-1.10;61.30
53268;DHT22;39156;51.176;6.738;2022-12-18T15:37:44;-1.10;60.60
53268;DHT22;39156;51.176;6.738;2022-12-18T15:40:15;-1.20;60.90
53268;DHT22;39156;51.176;6.738;2022-12-18T15:42:42;-1.10;61.10
53268;DHT22;39156;51.176;6.738;2022-12-18T15:45:27;-1.20;61.10
53268;DHT22;39156;51.176;6.738;2022-12-18T15:47:53;-1.10;61.30
53268;DHT22;39156;51.176;6.738;2022-12-18T15:50:18;-1.20;61.30
53268;DHT22;39156;51.176;6.738;2022-12-18T15:52:46;-1.20;61.40
53268;DHT22;39156;51.176;6.738;2022-12-18T15:55:14;-1.30;61.40
53268;DHT22;39156;51.176;6.738;2022-12-18T15:57:59;-1.20;61.30
53268;DHT22;39156;51.176;6.738;2022-12-18T16:00:25;-1.20;61.00
53268;DHT22;39156;51.176;6.738;2022-12-18T16:02:51;-1.10;61.40
53268;DHT22;39156;51.176;6.738;2022-12-18T16:05:18;-1.10;61.60
53268;DHT22;39156;51.176;6.738;2022-12-18T16:07:45;-1.20;61.70
53268;DHT22;39156;51.176;6.738;2022-12-18T16:10:11;-1.20;61.70
53268;DHT22;39156;51.176;6.738;2022-12-18T16:12:37;-1.20;61.80
53268;DHT22;39156;51.176;6.738;2022-12-18T16:15:05;-1.30;61.90
53268;DHT22;39156;51.176;6.738;2022-12-18T16:17:31;-1.30;62.10
53268;DHT22;39156;51.176;6.738;2022-12-18T16:19:57;-1.20;62.30
53268;DHT22;39156;51.176;6.738;2022-12-18T16:22:29;-1.30;62.70
53268;DHT22;39156;51.176;6.738;2022-12-18T16:24:56;-1.30;62.40
53268;DHT22;39156;51.176;6.738;2022-12-18T16:27:23;-1.30;62.50
53268;DHT22;39156;51.176;6.738;2022-12-18T16:29:49;-1.20;62.20
53268;DHT22;39156;51.176;6.738;2022-12-18T16:32:18;-1.30;62.70
53268;DHT22;39156;51.176;6.738;2022-12-18T16:34:45;-1.40;62.70
53268;DHT22;39156;51.176;6.738;2022-12-18T16:37:13;-1.20;62.60
53268;DHT22;39156;51.176;6.738;2022-12-18T16:39:41;-1.30;62.90
53268;DHT22;39156;51.176;6.738;2022-12-18T16:42:10;-1.30;62.90
53268;DHT22;39156;51.176;6.738;2022-12-18T16:44:39;-1.30;62.90
53268;DHT22;39156;51.176;6.738;2022-12-18T16:47:05;-1.30;63.00
53268;DHT22;39156;51.176;6.738;2022-12-18T16:49:31;-1.30;63.10
53268;DHT22;39156;51.176;6.738;2022-12-18T16:51:57;-1.20;63.20
53268;DHT22;39156;51.176;6.738;2022-12-18T16:54:23;-1.20;63.20
53268;DHT22;39156;51.176;6.738;2022-12-18T16:56:50;-1.30;63.30
53268;DHT22;39156;51.176;6.738;2022-12-18T16:59:16;-1.30;62.90
53268;DHT22;39156;51.176;6.738;2022-12-18T17:01:42;-1.20;63.40
53268;DHT22;39156;51.176;6.738;2022-12-18T17:04:08;-1.30;63.40
53268;DHT22;39156;51.176;6.738;2022-12-18T17:06:38;-1.20;63.50
53268;DHT22;39156;51.176;6.738;2022-12-18T17:09:08;-1.20;63.50
53268;DHT22;39156;51.176;6.738;2022-12-18T17:11:36;-1.30;63.60
53268;DHT22;39156;51.176;6.738;2022-12-18T17:14:10;-1.10;63.70
53268;DHT22;39156;51.176;6.738;2022-12-18T17:16:37;-1.20;63.70
53268;DHT22;39156;51.176;6.738;2022-12-18T17:19:03;-1.20;63.80
53268;DHT22;39156;51.176;6.738;2022-12-18T17:21:29;-1.20;63.80
53268;DHT22;39156;51.176;6.738;2022-12-18T17:23:55;-1.30;63.80
53268;DHT22;39156;51.176;6.738;2022-12-18T17:26:24;-1.30;63.90
53268;DHT22;39156;51.176;6.738;2022-12-18T17:28:49;-1.40;63.90